createdAt,value
2019-04-01T00:01:38.724Z,7.83
2019-04-01T00:04:09.114Z,6.22
2019-04-01T00:06:39.600Z,9.90
2019-04-01T00:09:09.968Z,7.03
2019-04-01T00:11:40.497Z,6.60
2019-04-01T00:14:10.799Z,7.53
2019-04-01T00:16:41.204Z,9.10
2019-04-01T00:19:11.572Z,6.47
2019-04-01T00:21:44.440Z,6.78
2019-04-01T00:24:13.943Z,7.45
2019-04-01T00:26:44.333Z,5.42
2019-04-01T00:29:14.781Z,7.40
2019-04-01T00:31:45.186Z,5.25
2019-04-01T00:34:15.439Z,7.25
2019-04-01T00:36:45.894Z,6.40
2019-04-01T00:39:16.263Z,7.60
2019-04-01T00:42:11.707Z,8.13
2019-04-01T00:44:42.060Z,7.80
2019-04-01T00:47:13.729Z,7.37
2019-04-01T00:49:44.001Z,6.08
2019-04-01T00:52:14.343Z,6.53
2019-04-01T00:54:44.755Z,5.80
2019-04-01T00:57:15.154Z,7.78
2019-04-01T00:59:45.562Z,8.08
2019-04-01T01:02:15.836Z,6.67
2019-04-01T01:04:46.211Z,6.95
2019-04-01T01:07:16.576Z,7.28
2019-04-01T01:09:46.877Z,6.67
2019-04-01T01:12:17.285Z,5.45
2019-04-01T01:14:47.734Z,7.42
2019-04-01T01:17:18.086Z,5.78
2019-04-01T01:19:48.525Z,5.85
2019-04-01T01:22:18.838Z,8.90
2019-04-01T01:24:49.184Z,6.97
2019-04-01T01:27:19.571Z,7.42
2019-04-01T01:29:50.919Z,7.12
2019-04-01T01:32:21.221Z,6.58
2019-04-01T01:34:51.538Z,6.58
2019-04-01T01:37:21.907Z,7.15
2019-04-01T01:39:52.238Z,6.12
2019-04-01T01:42:22.625Z,5.58
2019-04-01T01:44:53.009Z,7.40
2019-04-01T01:47:23.391Z,7.30
2019-04-01T01:49:53.808Z,7.15
2019-04-01T01:52:24.137Z,7.55
2019-04-01T01:54:54.459Z,7.85
2019-04-01T01:57:24.892Z,6.50
2019-04-01T01:59:55.326Z,5.45
2019-04-01T02:02:25.714Z,7.67
2019-04-01T02:04:56.002Z,6.70
2019-04-01T02:07:26.455Z,7.25
2019-04-01T02:09:56.805Z,4.55
2019-04-01T02:12:27.123Z,7.40
2019-04-01T02:14:57.450Z,7.62
2019-04-01T02:17:47.007Z,6.87
2019-04-01T02:20:17.399Z,5.78
2019-04-01T02:22:47.750Z,7.35
2019-04-01T02:25:18.051Z,5.00
2019-04-01T02:28:07.598Z,7.87
2019-04-01T02:30:37.895Z,7.67
2019-04-01T02:33:08.257Z,6.58
2019-04-01T02:35:38.576Z,7.40
2019-04-01T02:38:08.901Z,8.20
2019-04-01T02:40:39.255Z,7.92
2019-04-01T02:43:09.626Z,5.70
2019-04-01T02:45:39.908Z,6.85
2019-04-01T02:48:10.218Z,7.28
2019-04-01T02:50:40.513Z,6.55
2019-04-01T02:53:10.928Z,7.35
2019-04-01T02:55:41.364Z,8.28
2019-04-01T02:58:12.901Z,6.30
2019-04-01T03:00:44.427Z,7.20
2019-04-01T03:03:14.762Z,8.63
2019-04-01T03:05:45.436Z,8.00
2019-04-01T03:08:16.933Z,6.53
2019-04-01T03:10:47.324Z,7.35
2019-04-01T03:13:18.877Z,8.25
2019-04-01T03:15:49.227Z,6.90
2019-04-01T03:18:19.674Z,6.53
2019-04-01T03:20:50.056Z,6.80
2019-04-01T03:23:20.396Z,6.95
2019-04-01T03:25:50.855Z,7.08
2019-04-01T03:28:22.257Z,6.45
2019-04-01T03:30:52.676Z,6.12
2019-04-01T03:33:23.127Z,6.65
2019-04-01T03:35:53.428Z,7.80
2019-04-01T03:38:27.643Z,6.15
2019-04-01T03:40:55.867Z,6.12
2019-04-01T03:43:26.289Z,8.23
2019-04-01T03:45:56.680Z,5.85
2019-04-01T03:48:27.060Z,8.15
2019-04-01T03:50:57.450Z,6.85
2019-04-01T03:53:27.876Z,9.78
2019-04-01T03:55:58.255Z,7.15
2019-04-01T03:58:28.608Z,6.05
2019-04-01T04:00:59.042Z,7.33
2019-04-01T04:03:29.439Z,6.78
2019-04-01T04:05:59.869Z,8.45
2019-04-01T04:08:30.275Z,7.47
2019-04-01T04:11:00.645Z,6.35
2019-04-01T04:13:31.104Z,8.08
2019-04-01T04:16:01.436Z,7.20
2019-04-01T04:18:31.823Z,7.28
2019-04-01T04:21:03.325Z,6.70
2019-04-01T04:23:33.806Z,7.90
2019-04-01T04:26:04.315Z,6.75
2019-04-01T04:28:34.612Z,5.83
2019-04-01T04:31:05.061Z,5.87
2019-04-01T04:33:35.411Z,7.33
2019-04-01T04:36:05.917Z,5.35
2019-04-01T04:38:36.162Z,6.08
2019-04-01T04:41:18.470Z,7.67
2019-04-01T04:43:48.766Z,6.35
2019-04-01T04:46:21.019Z,7.20
2019-04-01T04:48:51.033Z,6.25
2019-04-01T04:51:21.381Z,7.00
2019-04-01T04:53:51.734Z,6.80
2019-04-01T04:56:22.036Z,6.35
2019-04-01T04:59:04.172Z,5.78
2019-04-01T05:01:34.632Z,7.47
2019-04-01T05:04:05.034Z,6.47
2019-04-01T05:06:35.492Z,9.73
2019-04-01T05:09:07.405Z,6.80
2019-04-01T05:11:37.742Z,6.25
2019-04-01T05:14:08.035Z,7.95
2019-04-01T05:16:38.295Z,7.58
2019-04-01T05:19:08.592Z,5.83
2019-04-01T05:21:39.074Z,7.05
2019-04-01T05:24:09.579Z,8.38
2019-04-01T05:26:39.969Z,7.20
2019-04-01T05:29:10.228Z,8.33
2019-04-01T05:31:40.774Z,7.62
2019-04-01T05:34:11.200Z,8.00
2019-04-01T05:36:41.590Z,7.47
2019-04-01T05:39:11.919Z,7.80
2019-04-01T05:41:44.715Z,6.78
2019-04-01T05:44:12.584Z,6.78
2019-04-01T05:46:46.934Z,6.28
2019-04-01T05:49:17.447Z,7.55
2019-04-01T05:51:50.085Z,6.50
2019-04-01T05:54:23.076Z,7.33
2019-04-01T05:56:53.576Z,6.08
2019-04-01T05:59:24.076Z,7.60
2019-04-01T06:01:54.639Z,7.75
2019-04-01T06:04:25.099Z,7.80
2019-04-01T06:07:15.066Z,7.97
2019-04-01T06:09:45.478Z,7.37
2019-04-01T06:12:15.967Z,11.93
2019-04-01T06:14:48.526Z,8.43
2019-04-01T06:17:18.902Z,11.08
2019-04-01T06:19:49.509Z,21.05
2019-04-01T06:22:24.663Z,9.18
2019-04-01T06:24:55.568Z,11.73
2019-04-01T06:27:34.824Z,12.25
2019-04-01T06:30:09.935Z,14.58
2019-04-01T06:32:48.505Z,13.53
2019-04-01T06:35:19.489Z,7.87
2019-04-01T06:37:51.866Z,13.08
2019-04-01T06:40:23.550Z,9.93
2019-04-01T06:42:53.886Z,10.63
2019-04-01T06:45:27.205Z,11.75
2019-04-01T06:47:57.546Z,9.38
2019-04-01T06:50:34.791Z,13.05
2019-04-01T06:53:06.513Z,9.40
2019-04-01T06:55:45.521Z,12.45
2019-04-01T06:58:19.045Z,12.40
2019-04-01T07:00:54.589Z,8.10
2019-04-01T07:03:34.891Z,8.80
2019-04-01T07:06:06.177Z,7.08
2019-04-01T07:08:42.387Z,8.18
2019-04-01T07:11:28.717Z,9.08
2019-04-01T07:14:00.429Z,6.28
2019-04-01T07:16:42.742Z,10.18
2019-04-01T07:22:19.352Z,9.00
2019-04-01T07:24:50.930Z,6.40
2019-04-01T07:33:08.901Z,8.83
2019-04-01T07:38:32.816Z,5.47
2019-04-01T07:41:08.428Z,11.97
2019-04-01T07:43:38.861Z,4.83
2019-04-01T07:46:09.259Z,14.30
2019-04-01T07:48:39.747Z,5.50
2019-04-01T07:51:12.074Z,9.63
2019-04-01T07:53:57.085Z,8.50
2019-04-01T07:56:27.417Z,5.67
2019-04-01T07:58:57.708Z,9.23
2019-04-01T08:01:28.189Z,19.40
2019-04-01T08:03:59.018Z,24.15
2019-04-01T08:07:02.437Z,15.50
2019-04-01T08:15:11.384Z,12.43
2019-04-01T08:17:44.597Z,5.72
2019-04-01T08:20:27.380Z,5.37
2019-04-01T08:28:26.792Z,10.35
2019-04-01T08:30:59.809Z,17.35
2019-04-01T08:33:30.737Z,9.40
2019-04-01T08:36:02.884Z,6.30
2019-04-01T08:38:33.785Z,4.10
2019-04-01T08:41:04.535Z,5.15
2019-04-01T08:43:35.109Z,6.80
2019-04-01T08:46:06.500Z,6.85
2019-04-01T08:51:15.419Z,12.33
2019-04-01T08:53:47.677Z,5.00
2019-04-01T08:56:18.353Z,6.55
2019-04-01T08:58:50.595Z,10.10
2019-04-01T09:01:34.656Z,6.30
2019-04-01T09:03:53.741Z,9.30
2019-04-01T09:07:12.658Z,56.88
2019-04-01T09:09:30.315Z,26.50
2019-04-01T09:12:32.354Z,21.62
2019-04-01T09:20:37.870Z,13.25
2019-04-01T09:23:08.603Z,8.45
2019-04-01T09:25:41.509Z,15.95
2019-04-01T09:28:12.990Z,12.98
2019-04-01T09:30:43.593Z,7.30
2019-04-01T09:33:16.570Z,13.88
2019-04-01T09:35:46.972Z,7.00
2019-04-01T09:38:19.240Z,9.25
2019-04-01T09:40:51.680Z,10.45
2019-04-01T09:43:22.178Z,18.17
2019-04-01T09:45:53.712Z,10.53
2019-04-01T09:48:25.859Z,10.95
2019-04-01T09:50:58.106Z,9.48
2019-04-01T09:53:31.751Z,18.15
2019-04-01T09:56:03.717Z,9.40
2019-04-01T10:11:13.482Z,8.03
2019-04-01T10:13:46.434Z,12.00
2019-04-01T10:19:52.099Z,10.18
2019-04-01T10:22:19.644Z,15.08
2019-04-01T10:25:07.616Z,13.80
2019-04-01T10:27:40.363Z,12.50
2019-04-01T10:30:11.470Z,6.30
2019-04-01T10:32:43.591Z,7.08
2019-04-01T10:35:16.825Z,14.87
2019-04-01T10:37:53.564Z,12.55
2019-04-01T10:40:28.424Z,6.10
2019-04-01T10:43:23.359Z,10.88
2019-04-01T10:45:57.410Z,14.58
2019-04-01T10:48:30.870Z,5.40
2019-04-01T10:51:07.093Z,17.77
2019-04-01T10:54:01.174Z,7.55
2019-04-01T10:56:42.369Z,6.70
2019-04-01T10:59:30.980Z,10.03
2019-04-01T11:02:05.135Z,9.03
2019-04-01T11:04:37.892Z,7.78
2019-04-01T11:07:13.965Z,11.95
2019-04-01T11:09:44.877Z,6.17
2019-04-01T11:12:18.694Z,6.30
2019-04-01T11:14:52.810Z,9.15
2019-04-01T11:17:39.119Z,6.15
2019-04-01T11:20:09.362Z,15.90
2019-04-01T11:22:41.377Z,11.88
2019-04-01T11:27:53.071Z,8.35
2019-04-01T11:33:22.301Z,4.85
2019-04-01T11:35:57.298Z,6.03
2019-04-01T11:38:28.280Z,6.80
2019-04-01T11:41:04.674Z,10.48
2019-04-01T11:43:35.770Z,13.68
2019-04-01T11:46:12.499Z,9.75
2019-04-01T11:48:49.114Z,8.68
2019-04-01T11:51:32.554Z,10.85
2019-04-01T11:54:00.487Z,8.48
2019-04-01T11:59:16.213Z,9.53
2019-04-01T12:01:48.819Z,10.10
2019-04-01T12:04:26.850Z,8.13
2019-04-01T12:07:01.882Z,5.70
2019-04-01T12:09:35.612Z,9.28
2019-04-01T12:12:22.301Z,6.92
2019-04-01T12:14:44.914Z,16.07
2019-04-01T12:17:17.711Z,12.53
2019-04-01T12:19:53.061Z,5.15
2019-04-01T12:22:45.207Z,11.13
2019-04-01T12:25:17.876Z,19.95
2019-04-01T12:27:52.287Z,9.95
2019-04-01T12:30:26.025Z,14.47
2019-04-01T12:33:01.364Z,9.13
2019-04-01T12:35:34.870Z,6.12
2019-04-01T12:38:07.119Z,14.68
2019-04-01T12:43:29.883Z,16.48
2019-04-01T12:46:02.014Z,14.95
2019-04-01T12:48:34.867Z,6.45
2019-04-01T12:51:09.434Z,14.15
2019-04-01T12:53:46.684Z,8.90
2019-04-01T12:56:18.438Z,4.35
2019-04-01T12:58:51.776Z,5.08
2019-04-01T13:01:22.351Z,8.23
2019-04-01T13:03:57.965Z,8.00
2019-04-01T13:06:34.075Z,16.80
2019-04-01T13:09:09.723Z,15.35
2019-04-01T13:11:49.468Z,19.25
2019-04-01T13:14:23.192Z,12.88
2019-04-01T13:16:53.769Z,11.73
2019-04-01T13:19:27.560Z,12.75
2019-04-01T13:22:23.715Z,11.33
2019-04-01T13:24:56.158Z,14.00
2019-04-01T13:27:26.654Z,8.50
2019-04-01T13:29:59.837Z,13.43
2019-04-01T13:32:49.926Z,8.78
2019-04-01T13:35:20.855Z,11.10
2019-04-01T13:37:51.362Z,10.05
2019-04-01T13:40:22.270Z,12.82
2019-04-01T13:42:54.240Z,7.78
2019-04-01T13:45:31.161Z,9.48
2019-04-01T13:47:57.288Z,9.85
2019-04-01T13:50:32.635Z,13.35
2019-04-01T13:53:04.750Z,12.03
2019-04-01T13:55:38.540Z,13.15
2019-04-01T13:58:10.514Z,7.55
2019-04-01T14:00:47.671Z,7.17
2019-04-01T14:03:55.792Z,10.65
2019-04-01T14:06:28.816Z,8.35
2019-04-01T14:09:05.367Z,8.68
2019-04-01T14:11:36.390Z,7.92
2019-04-01T14:14:06.646Z,7.00
2019-04-01T14:16:37.081Z,8.10
2019-04-01T14:19:10.439Z,7.12
2019-04-01T14:21:40.735Z,3.85
2019-04-01T14:24:11.295Z,8.38
2019-04-01T14:26:42.027Z,9.53
2019-04-01T14:29:12.419Z,6.30
2019-04-01T14:31:42.782Z,4.95
2019-04-01T14:34:22.430Z,8.78
2019-04-01T14:36:45.510Z,9.65
2019-04-01T14:39:16.006Z,9.40
2019-04-01T14:41:46.409Z,8.78
2019-04-01T14:44:16.843Z,5.30
2019-04-01T14:46:47.358Z,5.72
2019-04-01T14:49:17.766Z,6.10
2019-04-01T14:51:48.326Z,8.43
2019-04-01T14:54:20.863Z,18.98
2019-04-01T14:56:56.273Z,9.55
2019-04-01T14:59:29.271Z,9.73
2019-04-01T15:02:03.803Z,8.95
2019-04-01T15:04:34.326Z,8.10
2019-04-01T15:07:06.695Z,9.70
2019-04-01T15:09:38.758Z,8.33
2019-04-01T15:12:10.895Z,9.25
2019-04-01T15:14:41.207Z,7.17
2019-04-01T15:17:11.852Z,6.28
2019-04-01T15:19:42.335Z,7.10
2019-04-01T15:22:15.235Z,5.78
2019-04-01T15:24:57.064Z,4.15
2019-04-01T15:27:27.455Z,9.05
2019-04-01T15:29:58.234Z,11.65
2019-04-01T15:32:28.563Z,6.08
2019-04-01T15:34:59.138Z,3.75
2019-04-01T15:37:32.183Z,5.45
2019-04-01T15:40:01.506Z,7.70
2019-04-01T15:42:31.886Z,5.12
2019-04-01T15:45:02.256Z,5.58
2019-04-01T15:47:34.683Z,9.48
2019-04-01T15:50:05.850Z,3.55
2019-04-01T15:52:37.225Z,9.63
2019-04-01T15:55:07.505Z,4.10
2019-04-01T15:57:37.926Z,6.17
2019-04-01T16:00:08.948Z,3.15
2019-04-01T16:02:39.447Z,3.70
2019-04-01T16:05:09.729Z,4.87
2019-04-01T16:07:41.717Z,3.12
2019-04-01T16:10:23.844Z,3.98
2019-04-01T16:12:54.204Z,3.30
2019-04-01T16:15:24.547Z,3.42
2019-04-01T16:17:55.014Z,5.85
2019-04-01T16:20:26.190Z,2.95
2019-04-01T16:22:57.904Z,4.20
2019-04-01T16:25:28.296Z,3.05
2019-04-01T16:27:58.659Z,3.33
2019-04-01T16:30:29.007Z,3.62
2019-04-01T16:32:59.483Z,4.83
2019-04-01T16:35:29.843Z,3.25
2019-04-01T16:38:00.348Z,4.05
2019-04-01T16:40:30.538Z,2.72
2019-04-01T16:43:00.944Z,4.45
2019-04-01T16:45:31.415Z,3.02
2019-04-01T16:48:01.955Z,3.58
2019-04-01T16:50:32.323Z,4.83
2019-04-01T16:53:02.710Z,5.95
2019-04-01T16:55:33.083Z,4.03
2019-04-01T16:58:03.589Z,2.22
2019-04-01T17:00:33.885Z,2.75
2019-04-01T17:03:04.133Z,2.17
2019-04-01T17:05:34.552Z,1.80
2019-04-01T17:08:06.127Z,5.78
2019-04-01T17:10:36.401Z,2.08
2019-04-01T17:13:08.424Z,1.98
2019-04-01T17:15:38.720Z,1.72
2019-04-01T17:18:09.124Z,5.15
2019-04-01T17:20:39.556Z,4.75
2019-04-01T17:23:09.965Z,4.35
2019-04-01T17:25:40.323Z,4.28
2019-04-01T17:28:10.710Z,6.95
2019-04-01T17:30:41.062Z,5.90
2019-04-01T17:33:11.451Z,10.18
2019-04-01T17:35:42.060Z,17.82
2019-04-01T17:38:13.834Z,10.72
2019-04-01T17:40:44.274Z,16.15
2019-04-01T17:43:16.497Z,8.30
2019-04-01T17:45:47.426Z,14.63
2019-04-01T17:48:17.771Z,4.90
2019-04-01T17:50:48.151Z,5.60
2019-04-01T17:53:18.503Z,14.35
2019-04-01T17:55:48.978Z,14.50
2019-04-01T17:58:19.428Z,9.98
2019-04-01T18:00:57.482Z,11.75
2019-04-01T18:03:27.903Z,9.88
2019-04-01T18:05:58.242Z,7.78
2019-04-01T18:08:28.650Z,8.70
2019-04-01T18:10:59.102Z,9.35
2019-04-01T18:13:29.532Z,5.33
2019-04-01T18:15:59.876Z,7.37
2019-04-01T18:18:33.790Z,3.22
2019-04-01T18:21:03.309Z,5.05
2019-04-01T18:23:33.871Z,5.33
2019-04-01T18:26:04.301Z,8.85
2019-04-01T18:28:34.778Z,9.05
2019-04-01T18:31:05.106Z,7.30
2019-04-01T18:33:35.489Z,7.45
2019-04-01T18:36:25.022Z,5.53
2019-04-01T18:38:55.365Z,6.12
2019-04-01T18:41:25.802Z,6.33
2019-04-01T18:43:57.481Z,3.85
2019-04-01T18:46:29.020Z,5.83
2019-04-01T18:48:59.360Z,6.17
2019-04-01T18:51:29.849Z,8.20
2019-04-01T18:54:00.267Z,5.45
2019-04-01T18:56:30.620Z,3.65
2019-04-01T18:59:01.059Z,6.30
2019-04-01T19:01:32.529Z,4.17
2019-04-01T19:04:02.830Z,7.53
2019-04-01T19:06:33.286Z,4.37
2019-04-01T19:09:09.535Z,5.33
2019-04-01T19:11:36.352Z,5.90
2019-04-01T19:14:08.468Z,7.00
2019-04-01T19:16:38.939Z,5.12
2019-04-01T19:19:11.074Z,6.97
2019-04-01T19:21:41.414Z,5.10
2019-04-01T19:24:11.859Z,4.78
2019-04-01T19:26:42.344Z,10.10
2019-04-01T19:29:12.807Z,7.30
2019-04-01T19:31:43.309Z,6.15
2019-04-01T19:34:14.910Z,5.92
2019-04-01T19:36:45.348Z,5.70
2019-04-01T19:39:15.847Z,6.00
2019-04-01T19:41:46.266Z,5.87
2019-04-01T19:44:16.531Z,5.30
2019-04-01T19:46:46.931Z,7.17
2019-04-01T19:49:17.242Z,4.55
2019-04-01T19:51:47.568Z,5.35
2019-04-01T19:54:25.622Z,6.62
2019-04-01T19:56:50.089Z,5.55
2019-04-01T19:59:39.543Z,4.65
2019-04-01T20:02:13.580Z,7.30
2019-04-01T20:07:16.142Z,8.75
2019-04-01T20:12:37.700Z,5.78
2019-04-01T20:17:59.863Z,6.92
2019-04-01T20:20:20.745Z,9.28
2019-04-01T20:22:59.469Z,8.25
2019-04-01T20:25:27.287Z,8.20
2019-04-01T20:28:05.308Z,8.90
2019-04-01T20:30:37.976Z,6.97
2019-04-01T20:33:17.995Z,8.73
2019-04-01T20:35:49.507Z,12.13
2019-04-01T20:38:22.889Z,8.93
2019-04-01T20:41:20.241Z,11.80
2019-04-01T20:49:08.969Z,10.13
2019-04-01T20:51:39.299Z,11.03
2019-04-01T20:54:09.740Z,9.45
2019-04-01T20:56:40.138Z,12.33
2019-04-01T20:59:11.744Z,9.95
2019-04-01T21:01:42.294Z,11.88
2019-04-01T21:04:12.911Z,10.50
2019-04-01T21:06:43.318Z,11.50
2019-04-01T21:09:13.824Z,14.00
2019-04-01T21:11:44.151Z,13.48
2019-04-01T21:14:14.670Z,12.50
2019-04-01T21:16:45.153Z,14.30
2019-04-01T21:19:16.324Z,11.85
2019-04-01T21:21:47.087Z,15.45
2019-04-01T21:24:17.497Z,14.58
2019-04-01T21:26:47.989Z,14.60
2019-04-01T21:29:18.361Z,14.18
2019-04-01T21:31:48.812Z,13.48
2019-04-01T21:34:19.310Z,18.73
2019-04-01T21:36:49.782Z,16.70
2019-04-01T21:39:20.170Z,15.85
2019-04-01T21:41:50.656Z,15.93
2019-04-01T21:44:20.918Z,15.28
2019-04-01T21:46:51.347Z,18.10
2019-04-01T21:49:21.720Z,15.60
2019-04-01T21:51:52.543Z,16.77
2019-04-01T21:54:23.087Z,15.90
2019-04-01T21:56:53.389Z,16.80
2019-04-01T21:59:23.792Z,20.97
2019-04-01T22:01:54.494Z,18.35
2019-04-01T22:04:24.899Z,18.85
2019-04-01T22:06:55.323Z,19.82
2019-04-01T22:09:25.792Z,19.95
2019-04-01T22:11:57.989Z,18.65
2019-04-01T22:14:29.581Z,18.23
2019-04-01T22:17:01.165Z,18.52
2019-04-01T22:19:31.646Z,17.85
2019-04-01T22:22:02.183Z,17.67
2019-04-01T22:24:33.036Z,16.48
2019-04-01T22:27:03.918Z,16.17
2019-04-01T22:29:34.531Z,20.25
2019-04-01T22:32:04.875Z,18.67
2019-04-01T22:34:35.246Z,19.73
2019-04-01T22:37:05.623Z,20.97
2019-04-01T22:39:35.900Z,19.77
2019-04-01T22:42:06.411Z,20.00
2019-04-01T22:44:36.941Z,17.55
2019-04-01T22:47:07.466Z,20.62
2019-04-01T22:49:37.764Z,17.98
2019-04-01T22:52:10.466Z,23.05
2019-04-01T22:54:40.157Z,19.52
2019-04-01T22:57:10.614Z,22.93
2019-04-01T22:59:40.871Z,20.08
2019-04-01T23:02:13.161Z,18.23
2019-04-01T23:04:43.323Z,21.33
2019-04-01T23:07:13.565Z,25.40
2019-04-01T23:09:43.959Z,22.15
2019-04-01T23:12:14.465Z,21.12
2019-04-01T23:14:45.229Z,22.30
2019-04-01T23:17:16.536Z,23.05
2019-04-01T23:19:46.866Z,21.05
2019-04-01T23:22:17.200Z,21.40
2019-04-01T23:24:47.731Z,19.87
2019-04-01T23:27:20.558Z,22.25
2019-04-01T23:29:51.103Z,22.13
2019-04-01T23:32:22.120Z,21.82
2019-04-01T23:34:55.538Z,20.85
2019-04-01T23:37:25.761Z,22.10
2019-04-01T23:39:56.115Z,22.93
2019-04-01T23:42:28.077Z,21.90
2019-04-01T23:44:58.582Z,20.65
2019-04-01T23:47:30.385Z,22.15
2019-04-01T23:50:13.823Z,21.80
2019-04-01T23:52:44.313Z,20.08
2019-04-01T23:55:14.704Z,24.35
2019-04-01T23:57:46.394Z,23.30
